メインページ
METAR-TAF:

METAR-TAF

空港 :

高知空港

高知, 日本

緯度: 33-32N, 経度: 133-40E, 海抜: 7m

現時点の気象観測

当レポートは37分前の22:00(UTC)に作成
北/北西の風 6kt
気温 13°C
湿度 88%
気圧 1017 hPa
視程10km以上
高度1000ftの雲はほとんどない
高度6000ftの千切れ雲あり

METAR: RJOK 162200Z 34006KT 9999 FEW010 BKN060 13/11 Q1017

時間: 07:37 (22:37 UTC)

予報

当レポートは5時間31分前の17:06(UTC)に作成
予報は16日の 18時(UTC)から 18日の 00時(UTC)まで有効
北/北西の風 8kt
視程10km以上
高度2500ftの雲はほとんどない
高度5000ftの千切れ雲あり

TAF: RJOK 161706Z 1618/1800 34008KT 9999 FEW025 BKN050

4,000以上の空港の気象観測と天気予報(METAR報とTAF報)

利用可能な観測所は地図上に黄色い丸と赤い丸で示す。

丸の上にカーソルを重ねると観測所名を参照できる。

次にクリックすると気象観測と天気予報を参照できる。

マップの切り替え:黒色「×」印の緑ボタンをクリックして拡大、「-」印の緑ボタンをクリックして縮小、緑色の三角印をクリックして隣りの地図に切り替え


METAR-TAF: